sensor_id;sensor_type;location;lat;lon;timestamp;P1;durP1;ratioP1;P2;durP2;ratioP2
10491;SDS011;5293;51.464;-2.566;2023-01-24T00:00:43;46.73;;;26.50;;
10491;SDS011;5293;51.464;-2.566;2023-01-24T00:03:09;47.73;;;27.83;;
10491;SDS011;5293;51.464;-2.566;2023-01-24T00:05:39;58.77;;;31.30;;
10491;SDS011;5293;51.464;-2.566;2023-01-24T00:08:05;58.90;;;33.27;;
10491;SDS011;5293;51.464;-2.566;2023-01-24T00:10:31;60.43;;;32.17;;
10491;SDS011;5293;51.464;-2.566;2023-01-24T00:12:57;61.53;;;31.53;;
10491;SDS011;5293;51.464;-2.566;2023-01-24T00:15:23;62.30;;;32.50;;
10491;SDS011;5293;51.464;-2.566;2023-01-24T00:17:49;57.37;;;32.43;;
10491;SDS011;5293;51.464;-2.566;2023-01-24T00:20:15;70.10;;;35.80;;
10491;SDS011;5293;51.464;-2.566;2023-01-24T00:22:41;68.77;;;35.40;;
10491;SDS011;5293;51.464;-2.566;2023-01-24T00:25:07;61.93;;;34.33;;
10491;SDS011;5293;51.464;-2.566;2023-01-24T00:27:32;64.77;;;35.93;;
10491;SDS011;5293;51.464;-2.566;2023-01-24T00:30:00;66.90;;;33.90;;
10491;SDS011;5293;51.464;-2.566;2023-01-24T00:32:29;60.70;;;33.03;;
10491;SDS011;5293;51.464;-2.566;2023-01-24T00:34:55;62.77;;;36.27;;
10491;SDS011;5293;51.464;-2.566;2023-01-24T00:37:21;63.07;;;36.50;;
10491;SDS011;5293;51.464;-2.566;2023-01-24T00:39:46;68.20;;;38.73;;
10491;SDS011;5293;51.464;-2.566;2023-01-24T00:42:12;71.13;;;39.47;;
10491;SDS011;5293;51.464;-2.566;2023-01-24T00:44:37;68.83;;;39.37;;
10491;SDS011;5293;51.464;-2.566;2023-01-24T00:47:03;72.73;;;42.07;;
10491;SDS011;5293;51.464;-2.566;2023-01-24T00:49:29;70.50;;;40.73;;
10491;SDS011;5293;51.464;-2.566;2023-01-24T00:51:54;68.50;;;42.53;;
10491;SDS011;5293;51.464;-2.566;2023-01-24T00:54:20;69.90;;;41.00;;
10491;SDS011;5293;51.464;-2.566;2023-01-24T00:56:46;64.30;;;39.90;;
10491;SDS011;5293;51.464;-2.566;2023-01-24T00:59:12;64.63;;;39.83;;
10491;SDS011;5293;51.464;-2.566;2023-01-24T01:01:37;64.07;;;38.20;;
10491;SDS011;5293;51.464;-2.566;2023-01-24T01:04:03;60.03;;;37.53;;
10491;SDS011;5293;51.464;-2.566;2023-01-24T01:06:29;55.27;;;34.43;;
10491;SDS011;5293;51.464;-2.566;2023-01-24T01:08:55;50.00;;;29.80;;
10491;SDS011;5293;51.464;-2.566;2023-01-24T01:11:20;48.67;;;27.80;;
10491;SDS011;5293;51.464;-2.566;2023-01-24T01:13:46;46.43;;;28.00;;
10491;SDS011;5293;51.464;-2.566;2023-01-24T01:16:14;47.57;;;28.10;;
10491;SDS011;5293;51.464;-2.566;2023-01-24T01:18:44;54.40;;;30.50;;
10491;SDS011;5293;51.464;-2.566;2023-01-24T01:21:15;56.03;;;32.67;;
10491;SDS011;5293;51.464;-2.566;2023-01-24T01:23:43;52.20;;;33.40;;
10491;SDS011;5293;51.464;-2.566;2023-01-24T01:26:10;55.03;;;35.23;;
10491;SDS011;5293;51.464;-2.566;2023-01-24T01:28:39;64.20;;;38.50;;
10491;SDS011;5293;51.464;-2.566;2023-01-24T01:31:05;66.30;;;40.33;;
10491;SDS011;5293;51.464;-2.566;2023-01-24T01:33:31;65.57;;;41.40;;
10491;SDS011;5293;51.464;-2.566;2023-01-24T01:35:56;60.63;;;40.27;;
10491;SDS011;5293;51.464;-2.566;2023-01-24T01:38:22;70.37;;;42.73;;
10491;SDS011;5293;51.464;-2.566;2023-01-24T01:40:49;69.17;;;42.37;;
10491;SDS011;5293;51.464;-2.566;2023-01-24T01:43:20;64.83;;;39.87;;
10491;SDS011;5293;51.464;-2.566;2023-01-24T01:45:47;66.07;;;40.10;;
10491;SDS011;5293;51.464;-2.566;2023-01-24T01:48:19;65.37;;;41.37;;
10491;SDS011;5293;51.464;-2.566;2023-01-24T01:50:50;67.60;;;40.60;;
10491;SDS011;5293;51.464;-2.566;2023-01-24T01:53:31;56.30;;;34.90;;
10491;SDS011;5293;51.464;-2.566;2023-01-24T01:56:06;54.30;;;31.77;;
10491;SDS011;5293;51.464;-2.566;2023-01-24T01:58:38;48.13;;;28.57;;
10491;SDS011;5293;51.464;-2.566;2023-01-24T02:01:05;49.33;;;30.13;;
10491;SDS011;5293;51.464;-2.566;2023-01-24T02:03:36;47.73;;;30.47;;
10491;SDS011;5293;51.464;-2.566;2023-01-24T02:06:15;51.17;;;30.37;;
10491;SDS011;5293;51.464;-2.566;2023-01-24T02:08:59;45.13;;;27.13;;
10491;SDS011;5293;51.464;-2.566;2023-01-24T02:11:26;44.50;;;26.70;;
10491;SDS011;5293;51.464;-2.566;2023-01-24T02:14:09;41.80;;;26.40;;
10491;SDS011;5293;51.464;-2.566;2023-01-24T02:16:56;53.30;;;28.67;;
10491;SDS011;5293;51.464;-2.566;2023-01-24T02:22:03;64.53;;;34.30;;
10491;SDS011;5293;51.464;-2.566;2023-01-24T02:24:57;54.50;;;32.30;;
10491;SDS011;5293;51.464;-2.566;2023-01-24T02:28:04;55.80;;;31.10;;
10491;SDS011;5293;51.464;-2.566;2023-01-24T02:30:31;56.83;;;33.80;;
10491;SDS011;5293;51.464;-2.566;2023-01-24T02:32:57;58.10;;;34.33;;
10491;SDS011;5293;51.464;-2.566;2023-01-24T02:37:50;61.23;;;35.23;;
10491;SDS011;5293;51.464;-2.566;2023-01-24T02:40:16;57.80;;;34.30;;
10491;SDS011;5293;51.464;-2.566;2023-01-24T02:42:42;62.53;;;35.67;;
10491;SDS011;5293;51.464;-2.566;2023-01-24T02:45:10;58.23;;;35.20;;
10491;SDS011;5293;51.464;-2.566;2023-01-24T02:47:43;59.93;;;37.33;;
10491;SDS011;5293;51.464;-2.566;2023-01-24T02:50:11;64.63;;;37.27;;
10491;SDS011;5293;51.464;-2.566;2023-01-24T02:52:37;63.47;;;36.47;;
10491;SDS011;5293;51.464;-2.566;2023-01-24T02:55:21;59.03;;;35.90;;
10491;SDS011;5293;51.464;-2.566;2023-01-24T02:57:47;57.77;;;33.97;;
10491;SDS011;5293;51.464;-2.566;2023-01-24T03:00:32;59.90;;;34.63;;
10491;SDS011;5293;51.464;-2.566;2023-01-24T03:03:02;62.90;;;34.10;;
10491;SDS011;5293;51.464;-2.566;2023-01-24T03:05:30;57.03;;;33.20;;
10491;SDS011;5293;51.464;-2.566;2023-01-24T03:08:11;50.37;;;30.87;;
10491;SDS011;5293;51.464;-2.566;2023-01-24T03:10:37;53.53;;;31.73;;
10491;SDS011;5293;51.464;-2.566;2023-01-24T03:13:03;53.13;;;31.83;;
10491;SDS011;5293;51.464;-2.566;2023-01-24T03:15:47;56.37;;;32.40;;
10491;SDS011;5293;51.464;-2.566;2023-01-24T03:18:32;53.57;;;31.43;;
10491;SDS011;5293;51.464;-2.566;2023-01-24T03:21:16;53.57;;;31.63;;
10491;SDS011;5293;51.464;-2.566;2023-01-24T03:24:00;54.87;;;32.07;;
10491;SDS011;5293;51.464;-2.566;2023-01-24T03:26:44;57.47;;;33.40;;
10491;SDS011;5293;51.464;-2.566;2023-01-24T03:29:28;52.90;;;31.67;;
10491;SDS011;5293;51.464;-2.566;2023-01-24T03:32:12;61.20;;;34.67;;
10491;SDS011;5293;51.464;-2.566;2023-01-24T03:34:56;59.97;;;34.17;;
10491;SDS011;5293;51.464;-2.566;2023-01-24T03:37:23;57.20;;;33.40;;
10491;SDS011;5293;51.464;-2.566;2023-01-24T03:40:09;60.77;;;33.33;;
10491;SDS011;5293;51.464;-2.566;2023-01-24T03:42:37;60.77;;;34.50;;
10491;SDS011;5293;51.464;-2.566;2023-01-24T03:45:26;58.20;;;34.93;;
10491;SDS011;5293;51.464;-2.566;2023-01-24T03:47:58;54.83;;;33.73;;
10491;SDS011;5293;51.464;-2.566;2023-01-24T03:50:30;64.90;;;36.77;;
10491;SDS011;5293;51.464;-2.566;2023-01-24T03:53:22;59.97;;;35.20;;
10491;SDS011;5293;51.464;-2.566;2023-01-24T03:55:59;62.40;;;35.40;;
10491;SDS011;5293;51.464;-2.566;2023-01-24T03:58:26;60.77;;;34.73;;
10491;SDS011;5293;51.464;-2.566;2023-01-24T04:00:53;59.30;;;34.67;;
10491;SDS011;5293;51.464;-2.566;2023-01-24T04:03:20;54.73;;;31.80;;
10491;SDS011;5293;51.464;-2.566;2023-01-24T04:05:46;56.53;;;33.63;;
10491;SDS011;5293;51.464;-2.566;2023-01-24T04:08:13;57.30;;;32.50;;
10491;SDS011;5293;51.464;-2.566;2023-01-24T04:10:39;53.83;;;31.03;;
10491;SDS011;5293;51.464;-2.566;2023-01-24T04:13:05;54.93;;;32.33;;
10491;SDS011;5293;51.464;-2.566;2023-01-24T04:15:31;56.43;;;30.33;;
10491;SDS011;5293;51.464;-2.566;2023-01-24T04:17:58;55.13;;;32.50;;
10491;SDS011;5293;51.464;-2.566;2023-01-24T04:20:26;53.67;;;33.20;;
10491;SDS011;5293;51.464;-2.566;2023-01-24T04:22:52;55.53;;;32.73;;
10491;SDS011;5293;51.464;-2.566;2023-01-24T04:25:18;58.17;;;33.80;;
10491;SDS011;5293;51.464;-2.566;2023-01-24T04:27:44;52.10;;;32.50;;
10491;SDS011;5293;51.464;-2.566;2023-01-24T04:30:11;58.37;;;34.03;;
10491;SDS011;5293;51.464;-2.566;2023-01-24T04:32:38;57.23;;;33.03;;
10491;SDS011;5293;51.464;-2.566;2023-01-24T04:35:04;53.47;;;31.33;;
10491;SDS011;5293;51.464;-2.566;2023-01-24T04:37:31;54.77;;;30.07;;
10491;SDS011;5293;51.464;-2.566;2023-01-24T04:39:57;46.73;;;27.83;;
10491;SDS011;5293;51.464;-2.566;2023-01-24T04:42:23;42.20;;;25.03;;
10491;SDS011;5293;51.464;-2.566;2023-01-24T04:44:49;45.00;;;26.03;;
10491;SDS011;5293;51.464;-2.566;2023-01-24T04:47:14;42.17;;;25.97;;
10491;SDS011;5293;51.464;-2.566;2023-01-24T04:49:40;43.30;;;25.43;;
10491;SDS011;5293;51.464;-2.566;2023-01-24T04:52:08;43.90;;;25.90;;
10491;SDS011;5293;51.464;-2.566;2023-01-24T04:54:40;45.60;;;26.13;;
10491;SDS011;5293;51.464;-2.566;2023-01-24T04:57:06;47.77;;;25.43;;
10491;SDS011;5293;51.464;-2.566;2023-01-24T04:59:32;44.00;;;25.97;;
10491;SDS011;5293;51.464;-2.566;2023-01-24T05:01:58;41.93;;;24.77;;
10491;SDS011;5293;51.464;-2.566;2023-01-24T05:04:24;40.10;;;23.53;;
10491;SDS011;5293;51.464;-2.566;2023-01-24T05:06:49;39.03;;;24.07;;
10491;SDS011;5293;51.464;-2.566;2023-01-24T05:09:15;42.77;;;24.13;;
10491;SDS011;5293;51.464;-2.566;2023-01-24T05:11:40;40.67;;;23.40;;
10491;SDS011;5293;51.464;-2.566;2023-01-24T05:14:09;39.40;;;23.43;;
10491;SDS011;5293;51.464;-2.566;2023-01-24T05:16:35;42.77;;;23.37;;
10491;SDS011;5293;51.464;-2.566;2023-01-24T05:19:01;35.00;;;22.23;;
10491;SDS011;5293;51.464;-2.566;2023-01-24T05:21:27;40.27;;;22.20;;
10491;SDS011;5293;51.464;-2.566;2023-01-24T05:23:53;42.07;;;22.37;;
10491;SDS011;5293;51.464;-2.566;2023-01-24T05:26:19;42.90;;;23.50;;
10491;SDS011;5293;51.464;-2.566;2023-01-24T05:28:47;38.90;;;21.87;;
10491;SDS011;5293;51.464;-2.566;2023-01-24T05:31:14;37.80;;;22.33;;
10491;SDS011;5293;51.464;-2.566;2023-01-24T05:33:40;42.57;;;24.13;;
10491;SDS011;5293;51.464;-2.566;2023-01-24T05:36:07;41.93;;;24.00;;
10491;SDS011;5293;51.464;-2.566;2023-01-24T05:38:44;45.50;;;24.53;;
10491;SDS011;5293;51.464;-2.566;2023-01-24T05:41:12;45.93;;;24.50;;
10491;SDS011;5293;51.464;-2.566;2023-01-24T05:43:41;39.93;;;22.03;;
10491;SDS011;5293;51.464;-2.566;2023-01-24T05:46:09;42.07;;;24.30;;
10491;SDS011;5293;51.464;-2.566;2023-01-24T05:48:36;46.93;;;27.03;;
10491;SDS011;5293;51.464;-2.566;2023-01-24T05:51:05;40.90;;;24.30;;
10491;SDS011;5293;51.464;-2.566;2023-01-24T05:53:34;44.20;;;24.43;;
10491;SDS011;5293;51.464;-2.566;2023-01-24T05:56:03;43.00;;;24.93;;
10491;SDS011;5293;51.464;-2.566;2023-01-24T05:58:32;40.57;;;24.53;;
10491;SDS011;5293;51.464;-2.566;2023-01-24T06:00:59;47.93;;;24.97;;
10491;SDS011;5293;51.464;-2.566;2023-01-24T06:03:25;43.67;;;25.13;;
10491;SDS011;5293;51.464;-2.566;2023-01-24T06:05:52;50.57;;;25.90;;
10491;SDS011;5293;51.464;-2.566;2023-01-24T06:08:19;42.60;;;26.33;;
10491;SDS011;5293;51.464;-2.566;2023-01-24T06:10:46;42.00;;;24.57;;
10491;SDS011;5293;51.464;-2.566;2023-01-24T06:13:12;45.53;;;25.20;;
10491;SDS011;5293;51.464;-2.566;2023-01-24T06:15:39;45.23;;;24.67;;
10491;SDS011;5293;51.464;-2.566;2023-01-24T06:18:05;45.63;;;24.83;;
10491;SDS011;5293;51.464;-2.566;2023-01-24T06:20:32;43.23;;;26.13;;
10491;SDS011;5293;51.464;-2.566;2023-01-24T06:23:05;45.37;;;26.63;;
10491;SDS011;5293;51.464;-2.566;2023-01-24T06:25:32;52.40;;;27.37;;
10491;SDS011;5293;51.464;-2.566;2023-01-24T06:27:59;49.07;;;28.70;;
10491;SDS011;5293;51.464;-2.566;2023-01-24T06:30:25;48.63;;;28.67;;
10491;SDS011;5293;51.464;-2.566;2023-01-24T06:35:36;45.60;;;28.67;;
10491;SDS011;5293;51.464;-2.566;2023-01-24T06:38:25;48.63;;;27.80;;
10491;SDS011;5293;51.464;-2.566;2023-01-24T06:40:53;49.33;;;28.47;;
10491;SDS011;5293;51.464;-2.566;2023-01-24T06:43:21;47.83;;;28.13;;
10491;SDS011;5293;51.464;-2.566;2023-01-24T06:45:47;48.10;;;28.57;;
10491;SDS011;5293;51.464;-2.566;2023-01-24T06:48:13;47.80;;;27.23;;
10491;SDS011;5293;51.464;-2.566;2023-01-24T06:50:39;43.60;;;27.63;;
10491;SDS011;5293;51.464;-2.566;2023-01-24T06:53:05;45.10;;;26.73;;
10491;SDS011;5293;51.464;-2.566;2023-01-24T06:55:33;47.57;;;28.23;;
10491;SDS011;5293;51.464;-2.566;2023-01-24T06:57:59;51.27;;;27.13;;
10491;SDS011;5293;51.464;-2.566;2023-01-24T07:00:26;45.73;;;28.23;;
10491;SDS011;5293;51.464;-2.566;2023-01-24T07:02:57;44.30;;;28.27;;
10491;SDS011;5293;51.464;-2.566;2023-01-24T07:05:29;50.03;;;26.70;;
10491;SDS011;5293;51.464;-2.566;2023-01-24T07:07:54;48.07;;;27.40;;
10491;SDS011;5293;51.464;-2.566;2023-01-24T07:10:20;44.70;;;26.23;;
10491;SDS011;5293;51.464;-2.566;2023-01-24T07:12:46;45.07;;;27.63;;
10491;SDS011;5293;51.464;-2.566;2023-01-24T07:15:12;49.43;;;27.23;;
10491;SDS011;5293;51.464;-2.566;2023-01-24T07:17:38;47.87;;;27.70;;
10491;SDS011;5293;51.464;-2.566;2023-01-24T07:20:05;47.60;;;27.57;;
10491;SDS011;5293;51.464;-2.566;2023-01-24T07:22:31;46.77;;;27.13;;
10491;SDS011;5293;51.464;-2.566;2023-01-24T07:24:57;46.57;;;27.53;;
10491;SDS011;5293;51.464;-2.566;2023-01-24T07:27:23;43.07;;;28.40;;
10491;SDS011;5293;51.464;-2.566;2023-01-24T07:29:49;55.00;;;29.43;;
10491;SDS011;5293;51.464;-2.566;2023-01-24T07:32:14;50.90;;;28.10;;
10491;SDS011;5293;51.464;-2.566;2023-01-24T07:34:40;47.57;;;28.00;;
10491;SDS011;5293;51.464;-2.566;2023-01-24T07:37:06;56.80;;;29.37;;
10491;SDS011;5293;51.464;-2.566;2023-01-24T07:39:32;50.40;;;29.37;;
10491;SDS011;5293;51.464;-2.566;2023-01-24T07:41:58;51.77;;;29.63;;
10491;SDS011;5293;51.464;-2.566;2023-01-24T07:44:24;43.13;;;26.40;;
10491;SDS011;5293;51.464;-2.566;2023-01-24T07:46:49;46.30;;;27.73;;
10491;SDS011;5293;51.464;-2.566;2023-01-24T07:49:15;44.80;;;27.40;;
10491;SDS011;5293;51.464;-2.566;2023-01-24T07:51:41;43.97;;;27.10;;
10491;SDS011;5293;51.464;-2.566;2023-01-24T07:54:07;45.80;;;25.47;;
10491;SDS011;5293;51.464;-2.566;2023-01-24T07:56:33;42.37;;;25.97;;
10491;SDS011;5293;51.464;-2.566;2023-01-24T07:58:58;53.43;;;27.17;;
10491;SDS011;5293;51.464;-2.566;2023-01-24T08:01:24;52.70;;;28.77;;
10491;SDS011;5293;51.464;-2.566;2023-01-24T08:03:57;49.17;;;27.90;;
10491;SDS011;5293;51.464;-2.566;2023-01-24T08:06:24;48.07;;;28.70;;
10491;SDS011;5293;51.464;-2.566;2023-01-24T08:08:50;46.70;;;28.80;;
10491;SDS011;5293;51.464;-2.566;2023-01-24T08:11:15;48.53;;;29.00;;
10491;SDS011;5293;51.464;-2.566;2023-01-24T08:13:43;47.07;;;28.03;;
10491;SDS011;5293;51.464;-2.566;2023-01-24T08:16:09;55.70;;;28.00;;
10491;SDS011;5293;51.464;-2.566;2023-01-24T08:18:36;45.77;;;27.60;;
10491;SDS011;5293;51.464;-2.566;2023-01-24T08:21:02;49.67;;;26.83;;
10491;SDS011;5293;51.464;-2.566;2023-01-24T08:23:29;47.70;;;26.67;;
10491;SDS011;5293;51.464;-2.566;2023-01-24T08:25:56;50.97;;;26.33;;
10491;SDS011;5293;51.464;-2.566;2023-01-24T08:28:23;48.80;;;25.67;;
10491;SDS011;5293;51.464;-2.566;2023-01-24T08:30:48;46.87;;;24.13;;
10491;SDS011;5293;51.464;-2.566;2023-01-24T08:33:14;45.30;;;25.10;;
10491;SDS011;5293;51.464;-2.566;2023-01-24T08:35:46;47.20;;;24.67;;
10491;SDS011;5293;51.464;-2.566;2023-01-24T08:38:12;41.53;;;24.30;;
10491;SDS011;5293;51.464;-2.566;2023-01-24T08:40:38;41.67;;;23.37;;
10491;SDS011;5293;51.464;-2.566;2023-01-24T08:43:03;48.47;;;25.63;;
10491;SDS011;5293;51.464;-2.566;2023-01-24T08:45:29;47.07;;;26.77;;
10491;SDS011;5293;51.464;-2.566;2023-01-24T08:47:55;40.37;;;24.20;;
10491;SDS011;5293;51.464;-2.566;2023-01-24T08:50:21;45.37;;;25.87;;
10491;SDS011;5293;51.464;-2.566;2023-01-24T08:52:47;40.97;;;23.03;;
10491;SDS011;5293;51.464;-2.566;2023-01-24T08:55:13;43.27;;;23.60;;
10491;SDS011;5293;51.464;-2.566;2023-01-24T08:57:42;43.57;;;24.43;;
10491;SDS011;5293;51.464;-2.566;2023-01-24T09:00:08;46.43;;;24.53;;
10491;SDS011;5293;51.464;-2.566;2023-01-24T09:02:35;47.35;;;25.42;;
10491;SDS011;5293;51.464;-2.566;2023-01-24T09:05:06;46.23;;;24.17;;
10491;SDS011;5293;51.464;-2.566;2023-01-24T09:07:33;44.23;;;24.27;;
10491;SDS011;5293;51.464;-2.566;2023-01-24T09:10:01;42.37;;;24.43;;
10491;SDS011;5293;51.464;-2.566;2023-01-24T09:12:30;41.37;;;24.50;;
10491;SDS011;5293;51.464;-2.566;2023-01-24T09:14:57;44.60;;;24.10;;
10491;SDS011;5293;51.464;-2.566;2023-01-24T09:17:23;39.77;;;23.77;;
10491;SDS011;5293;51.464;-2.566;2023-01-24T09:19:49;42.97;;;23.93;;
10491;SDS011;5293;51.464;-2.566;2023-01-24T09:22:15;46.07;;;26.17;;
10491;SDS011;5293;51.464;-2.566;2023-01-24T09:24:41;46.60;;;24.50;;
10491;SDS011;5293;51.464;-2.566;2023-01-24T09:27:07;54.33;;;25.83;;
10491;SDS011;5293;51.464;-2.566;2023-01-24T09:29:34;45.63;;;24.57;;
10491;SDS011;5293;51.464;-2.566;2023-01-24T09:31:59;44.10;;;24.80;;
10491;SDS011;5293;51.464;-2.566;2023-01-24T09:34:25;43.60;;;26.27;;
10491;SDS011;5293;51.464;-2.566;2023-01-24T09:36:51;42.47;;;24.33;;
10491;SDS011;5293;51.464;-2.566;2023-01-24T09:39:16;47.90;;;26.87;;
10491;SDS011;5293;51.464;-2.566;2023-01-24T09:45:02;50.17;;;25.83;;
10491;SDS011;5293;51.464;-2.566;2023-01-24T09:47:40;43.55;;;26.02;;
10491;SDS011;5293;51.464;-2.566;2023-01-24T09:50:05;43.00;;;24.30;;
10491;SDS011;5293;51.464;-2.566;2023-01-24T09:52:56;46.37;;;24.63;;
10491;SDS011;5293;51.464;-2.566;2023-01-24T09:55:40;45.13;;;24.90;;
10491;SDS011;5293;51.464;-2.566;2023-01-24T09:58:16;38.33;;;23.07;;
10491;SDS011;5293;51.464;-2.566;2023-01-24T10:00:51;44.97;;;28.05;;
10491;SDS011;5293;51.464;-2.566;2023-01-24T10:03:21;40.33;;;23.33;;
10491;SDS011;5293;51.464;-2.566;2023-01-24T10:05:55;50.47;;;28.13;;
10491;SDS011;5293;51.464;-2.566;2023-01-24T10:16:38;42.87;;;24.77;;
10491;SDS011;5293;51.464;-2.566;2023-01-24T10:22:35;48.00;;;30.65;;
10491;SDS011;5293;51.464;-2.566;2023-01-24T10:25:21;43.80;;;25.03;;
10491;SDS011;5293;51.464;-2.566;2023-01-24T10:27:51;42.47;;;24.40;;
10491;SDS011;5293;51.464;-2.566;2023-01-24T10:30:22;48.23;;;24.50;;
10491;SDS011;5293;51.464;-2.566;2023-01-24T10:33:11;41.97;;;23.87;;
10491;SDS011;5293;51.464;-2.566;2023-01-24T10:38:24;40.70;;;23.93;;
10491;SDS011;5293;51.464;-2.566;2023-01-24T10:43:25;48.35;;;29.40;;
10491;SDS011;5293;51.464;-2.566;2023-01-24T10:51:11;48.13;;;29.75;;
10491;SDS011;5293;51.464;-2.566;2023-01-24T10:53:42;41.77;;;25.47;;
10491;SDS011;5293;51.464;-2.566;2023-01-24T10:56:09;41.17;;;24.00;;
10491;SDS011;5293;51.464;-2.566;2023-01-24T10:58:36;40.13;;;23.37;;
10491;SDS011;5293;51.464;-2.566;2023-01-24T11:01:08;43.20;;;24.73;;
10491;SDS011;5293;51.464;-2.566;2023-01-24T11:03:45;39.57;;;24.27;;
10491;SDS011;5293;51.464;-2.566;2023-01-24T11:06:22;44.72;;;26.70;;
10491;SDS011;5293;51.464;-2.566;2023-01-24T11:09:12;38.93;;;25.83;;
10491;SDS011;5293;51.464;-2.566;2023-01-24T11:11:46;44.00;;;24.77;;
10491;SDS011;5293;51.464;-2.566;2023-01-24T11:14:16;43.77;;;24.47;;
10491;SDS011;5293;51.464;-2.566;2023-01-24T11:16:46;44.95;;;28.63;;
10491;SDS011;5293;51.464;-2.566;2023-01-24T11:22:00;41.60;;;24.53;;
10491;SDS011;5293;51.464;-2.566;2023-01-24T11:24:44;41.83;;;24.40;;
10491;SDS011;5293;51.464;-2.566;2023-01-24T11:27:14;36.97;;;22.83;;
10491;SDS011;5293;51.464;-2.566;2023-01-24T11:29:44;40.13;;;23.83;;
10491;SDS011;5293;51.464;-2.566;2023-01-24T11:32:34;36.53;;;22.30;;
10491;SDS011;5293;51.464;-2.566;2023-01-24T11:35:35;42.38;;;28.77;;
10491;SDS011;5293;51.464;-2.566;2023-01-24T11:40:42;48.08;;;30.38;;
10491;SDS011;5293;51.464;-2.566;2023-01-24T11:54:30;41.83;;;22.73;;
10491;SDS011;5293;51.464;-2.566;2023-01-24T12:06:14;31.33;;;19.93;;
10491;SDS011;5293;51.464;-2.566;2023-01-24T12:11:21;35.00;;;21.10;;
10491;SDS011;5293;51.464;-2.566;2023-01-24T12:22:53;24.90;;;15.63;;
10491;SDS011;5293;51.464;-2.566;2023-01-24T12:25:22;26.50;;;13.60;;
10491;SDS011;5293;51.464;-2.566;2023-01-24T12:27:55;30.43;;;18.20;;
10491;SDS011;5293;51.464;-2.566;2023-01-24T12:33:14;27.97;;;16.77;;
10491;SDS011;5293;51.464;-2.566;2023-01-24T12:36:16;28.30;;;17.40;;
10491;SDS011;5293;51.464;-2.566;2023-01-24T12:38:56;30.47;;;16.63;;
10491;SDS011;5293;51.464;-2.566;2023-01-24T12:41:31;25.90;;;17.50;;
10491;SDS011;5293;51.464;-2.566;2023-01-24T12:52:38;27.03;;;15.83;;
10491;SDS011;5293;51.464;-2.566;2023-01-24T12:55:16;19.90;;;14.33;;
10491;SDS011;5293;51.464;-2.566;2023-01-24T13:00:24;23.20;;;15.43;;
10491;SDS011;5293;51.464;-2.566;2023-01-24T13:09:36;23.27;;;17.07;;
10491;SDS011;5293;51.464;-2.566;2023-01-24T13:11:45;29.07;;;17.80;;
10491;SDS011;5293;51.464;-2.566;2023-01-24T13:19:24;24.03;;;15.27;;
10491;SDS011;5293;51.464;-2.566;2023-01-24T13:25:02;21.47;;;14.53;;
10491;SDS011;5293;51.464;-2.566;2023-01-24T13:30:18;20.70;;;14.00;;
10491;SDS011;5293;51.464;-2.566;2023-01-24T13:32:54;27.67;;;15.57;;
10491;SDS011;5293;51.464;-2.566;2023-01-24T13:35:26;24.03;;;15.20;;
10491;SDS011;5293;51.464;-2.566;2023-01-24T13:37:53;32.70;;;18.03;;
10491;SDS011;5293;51.464;-2.566;2023-01-24T13:40:31;29.83;;;16.47;;
10491;SDS011;5293;51.464;-2.566;2023-01-24T13:43:01;28.73;;;17.70;;
10491;SDS011;5293;51.464;-2.566;2023-01-24T13:47:54;29.27;;;18.33;;
10491;SDS011;5293;51.464;-2.566;2023-01-24T13:50:22;28.47;;;17.43;;
10491;SDS011;5293;51.464;-2.566;2023-01-24T13:52:50;27.37;;;16.33;;
10491;SDS011;5293;51.464;-2.566;2023-01-24T13:57:45;26.17;;;15.70;;
10491;SDS011;5293;51.464;-2.566;2023-01-24T14:02:41;28.03;;;18.30;;
10491;SDS011;5293;51.464;-2.566;2023-01-24T14:07:55;38.13;;;20.57;;
10491;SDS011;5293;51.464;-2.566;2023-01-24T14:10:32;30.33;;;17.00;;
10491;SDS011;5293;51.464;-2.566;2023-01-24T14:12:59;28.70;;;17.10;;
10491;SDS011;5293;51.464;-2.566;2023-01-24T14:15:29;25.90;;;16.33;;
10491;SDS011;5293;51.464;-2.566;2023-01-24T14:18:32;25.97;;;16.37;;
10491;SDS011;5293;51.464;-2.566;2023-01-24T14:21:15;27.93;;;17.00;;
10491;SDS011;5293;51.464;-2.566;2023-01-24T14:23:44;30.43;;;17.43;;
10491;SDS011;5293;51.464;-2.566;2023-01-24T14:26:14;25.83;;;16.80;;
10491;SDS011;5293;51.464;-2.566;2023-01-24T14:28:44;25.93;;;16.43;;
10491;SDS011;5293;51.464;-2.566;2023-01-24T14:41:49;26.57;;;16.33;;
10491;SDS011;5293;51.464;-2.566;2023-01-24T14:44:38;24.97;;;16.73;;
10491;SDS011;5293;51.464;-2.566;2023-01-24T14:49:51;26.00;;;17.23;;
10491;SDS011;5293;51.464;-2.566;2023-01-24T14:52:19;26.27;;;17.10;;
10491;SDS011;5293;51.464;-2.566;2023-01-24T14:54:48;27.77;;;16.90;;
10491;SDS011;5293;51.464;-2.566;2023-01-24T14:59:59;26.07;;;17.07;;
10491;SDS011;5293;51.464;-2.566;2023-01-24T15:02:26;28.80;;;16.67;;
10491;SDS011;5293;51.464;-2.566;2023-01-24T15:04:52;26.93;;;15.70;;
10491;SDS011;5293;51.464;-2.566;2023-01-24T15:07:18;25.60;;;16.30;;
10491;SDS011;5293;51.464;-2.566;2023-01-24T15:09:43;25.93;;;16.10;;
10491;SDS011;5293;51.464;-2.566;2023-01-24T15:14:56;23.43;;;14.50;;
10491;SDS011;5293;51.464;-2.566;2023-01-24T15:17:24;26.97;;;16.77;;
10491;SDS011;5293;51.464;-2.566;2023-01-24T15:19:53;27.33;;;16.67;;
10491;SDS011;5293;51.464;-2.566;2023-01-24T15:22:23;27.60;;;17.13;;
10491;SDS011;5293;51.464;-2.566;2023-01-24T15:24:54;26.07;;;16.57;;
10491;SDS011;5293;51.464;-2.566;2023-01-24T15:27:22;27.57;;;17.60;;
10491;SDS011;5293;51.464;-2.566;2023-01-24T15:30:12;29.47;;;16.60;;
10491;SDS011;5293;51.464;-2.566;2023-01-24T15:32:42;30.50;;;17.87;;
10491;SDS011;5293;51.464;-2.566;2023-01-24T15:37:58;26.17;;;16.87;;
10491;SDS011;5293;51.464;-2.566;2023-01-24T15:44:13;27.67;;;17.13;;
10491;SDS011;5293;51.464;-2.566;2023-01-24T15:46:44;28.13;;;16.83;;
10491;SDS011;5293;51.464;-2.566;2023-01-24T15:49:40;30.53;;;18.50;;
10491;SDS011;5293;51.464;-2.566;2023-01-24T15:52:21;26.90;;;17.13;;
10491;SDS011;5293;51.464;-2.566;2023-01-24T15:54:54;31.67;;;18.13;;
10491;SDS011;5293;51.464;-2.566;2023-01-24T15:57:25;29.40;;;18.63;;
10491;SDS011;5293;51.464;-2.566;2023-01-24T16:00:48;32.67;;;18.30;;
10491;SDS011;5293;51.464;-2.566;2023-01-24T16:02:50;31.37;;;19.27;;
10491;SDS011;5293;51.464;-2.566;2023-01-24T16:05:17;33.67;;;20.27;;
10491;SDS011;5293;51.464;-2.566;2023-01-24T16:07:44;31.77;;;18.90;;
10491;SDS011;5293;51.464;-2.566;2023-01-24T16:10:16;36.43;;;20.07;;
10491;SDS011;5293;51.464;-2.566;2023-01-24T16:12:42;35.47;;;18.90;;
10491;SDS011;5293;51.464;-2.566;2023-01-24T16:15:17;36.63;;;22.93;;
10491;SDS011;5293;51.464;-2.566;2023-01-24T16:17:44;34.87;;;21.03;;
10491;SDS011;5293;51.464;-2.566;2023-01-24T16:20:20;34.03;;;20.23;;
10491;SDS011;5293;51.464;-2.566;2023-01-24T16:22:47;36.33;;;20.27;;
10491;SDS011;5293;51.464;-2.566;2023-01-24T16:25:13;39.53;;;20.53;;
10491;SDS011;5293;51.464;-2.566;2023-01-24T16:27:41;30.80;;;19.90;;
10491;SDS011;5293;51.464;-2.566;2023-01-24T16:30:15;42.33;;;21.20;;
10491;SDS011;5293;51.464;-2.566;2023-01-24T16:32:43;34.83;;;20.10;;
10491;SDS011;5293;51.464;-2.566;2023-01-24T16:35:09;40.53;;;22.40;;
10491;SDS011;5293;51.464;-2.566;2023-01-24T16:37:35;53.47;;;37.60;;
10491;SDS011;5293;51.464;-2.566;2023-01-24T16:40:00;59.83;;;38.93;;
10491;SDS011;5293;51.464;-2.566;2023-01-24T16:42:26;50.30;;;29.97;;
10491;SDS011;5293;51.464;-2.566;2023-01-24T16:44:56;45.13;;;25.57;;
10491;SDS011;5293;51.464;-2.566;2023-01-24T16:47:27;38.70;;;24.77;;
10491;SDS011;5293;51.464;-2.566;2023-01-24T16:49:53;43.63;;;25.73;;
10491;SDS011;5293;51.464;-2.566;2023-01-24T16:52:19;52.37;;;33.67;;
10491;SDS011;5293;51.464;-2.566;2023-01-24T16:54:46;39.73;;;24.20;;